Time;durP1;ratioP1;P1;durP2;ratioP2;P2;SDS_P1;SDS_P2;PMS_P1;PMS_P2;Temp;Humidity;BMP_temperature;BMP_pressure;BME280_temperature;BME280_humidity;BME280_pressure;Samples;Min_cycle;Max_cycle;Signal;HPM_P1;HPM_P2
2021/04/02 00:00:36;;;;;;;11.13;8.30;;;3.90;99.90;;;;;;5105620;28;20047;-63
2021/04/02 00:03:10;;;;;;;10.93;8.68;;;3.90;99.90;;;;;;5086945;28;20032;-63
2021/04/02 00:05:35;;;;;;;18.60;11.70;;;3.90;99.90;;;;;;5102605;28;20540;-62
2021/04/02 00:08:01;;;;;;;17.88;11.93;;;3.90;99.90;;;;;;5105762;28;20020;-63
2021/04/02 00:10:32;;;;;;;26.27;13.70;;;3.90;99.90;;;;;;5104961;28;20028;-62
2021/04/02 00:12:57;;;;;;;25.52;14.23;;;3.90;99.90;;;;;;5104115;28;20039;-63
2021/04/02 00:15:23;;;;;;;23.23;14.27;;;3.90;99.90;;;;;;5105058;28;20023;-64
2021/04/02 00:17:49;;;;;;;22.45;13.50;;;3.90;99.90;;;;;;5089171;28;20024;-62
2021/04/02 00:20:17;;;;;;;22.77;14.35;;;4.00;99.90;;;;;;5070991;28;20028;-62
2021/04/02 00:22:44;;;;;;;23.73;14.10;;;4.00;99.90;;;;;;5097772;28;20023;-61
2021/04/02 00:25:13;;;;;;;26.35;15.77;;;4.00;99.90;;;;;;5070755;28;20036;-63
2021/04/02 00:27:39;;;;;;;26.70;16.48;;;4.00;99.90;;;;;;5088645;28;20043;-63
2021/04/02 00:30:37;;;;;;;26.45;15.50;;;4.00;99.90;;;;;;5086938;28;20028;-62
2021/04/02 00:33:03;;;;;;;;;;;4.10;99.90;;;;;;5073417;28;20457;-62
2021/04/02 00:35:28;;;;;;;22.87;13.23;;;4.10;99.90;;;;;;5088663;28;20010;-63
2021/04/02 00:37:54;;;;;;;22.80;14.25;;;4.10;99.90;;;;;;5102554;28;20023;-63
2021/04/02 00:40:24;;;;;;;22.60;14.77;;;4.10;99.90;;;;;;5108543;28;20393;-62
2021/04/02 00:42:50;;;;;;;22.90;13.68;;;4.10;99.90;;;;;;5109183;28;20019;-62
2021/04/02 00:45:18;;;;;;;28.40;13.38;;;4.10;99.90;;;;;;5091018;28;20363;-63
2021/04/02 00:47:45;;;;;;;31.38;14.40;;;4.10;99.90;;;;;;5105990;28;20023;-61
2021/04/02 00:50:31;;;;;;;31.23;12.90;;;4.10;99.90;;;;;;5092797;28;20036;-63
2021/04/02 00:52:58;;;;;;;26.05;11.77;;;4.00;99.90;;;;;;5089790;28;20046;-62
2021/04/02 00:55:23;;;;;;;21.90;13.73;;;3.90;99.90;;;;;;5088021;28;20024;-64
2021/04/02 00:57:49;;;;;;;32.00;13.50;;;3.90;99.90;;;;;;5082162;28;20395;-63
2021/04/02 01:00:15;;;;;;;43.97;13.07;;;3.90;99.90;;;;;;5080453;28;20171;-63
2021/04/02 01:02:42;;;;;;;30.17;11.85;;;3.90;99.90;;;;;;5086634;28;20028;-62
2021/04/02 01:05:22;;;;;;;44.40;12.93;;;3.80;99.90;;;;;;5088150;28;20035;-63
2021/04/02 01:07:53;;;;;;;53.00;12.63;;;3.80;99.90;;;;;;5087502;28;20020;-63
2021/04/02 01:10:20;;;;;;;17.15;11.15;;;3.80;99.90;;;;;;5088212;28;20068;-63
2021/04/02 01:12:47;;;;;;;90.57;13.45;;;3.70;99.90;;;;;;5088680;28;20069;-63
2021/04/02 01:15:29;;;;;;;42.67;11.88;;;3.70;99.90;;;;;;5088823;28;20104;-62
2021/04/02 01:17:57;;;;;;;21.48;10.25;;;3.70;99.90;;;;;;5092909;28;20020;-63
2021/04/02 01:20:26;;;;;;;24.50;11.10;;;3.70;99.90;;;;;;5092469;28;20115;-61
2021/04/02 01:22:53;;;;;;;27.48;11.68;;;3.70;99.90;;;;;;5076384;28;20024;-62
2021/04/02 01:25:28;;;;;;;15.38;10.27;;;3.70;99.90;;;;;;5080165;28;20024;-62
2021/04/02 01:28:07;;;;;;;14.87;10.40;;;3.70;99.90;;;;;;5087741;28;20023;-63
2021/04/02 01:30:35;;;;;;;13.57;9.50;;;3.70;99.90;;;;;;5087732;28;20036;-62
2021/04/02 01:33:02;;;;;;;23.67;11.55;;;3.70;99.90;;;;;;5084156;28;20040;-61
2021/04/02 01:35:30;;;;;;;108.35;13.68;;;3.70;99.90;;;;;;5087057;28;20036;-62
2021/04/02 01:38:07;;;;;;;21.45;9.15;;;3.60;99.90;;;;;;5102162;28;20120;-62
2021/04/02 01:40:36;;;;;;;12.52;9.40;;;3.70;99.90;;;;;;5074607;28;20406;-62
2021/04/02 01:43:08;;;;;;;15.15;10.02;;;3.70;99.90;;;;;;5092199;28;20024;-62
2021/04/02 01:45:35;;;;;;;15.00;10.52;;;3.60;99.90;;;;;;5098877;28;20040;-62
2021/04/02 01:48:01;;;;;;;14.38;9.40;;;3.70;99.90;;;;;;5112323;28;20067;-63
2021/04/02 01:50:27;;;;;;;14.70;9.60;;;3.70;99.90;;;;;;5112222;28;20035;-62
2021/04/02 01:52:55;;;;;;;18.83;9.00;;;3.60;99.90;;;;;;5110021;28;20028;-63
2021/04/02 01:55:23;;;;;;;15.77;9.07;;;3.60;99.90;;;;;;5112630;28;20049;-61
2021/04/02 01:57:50;;;;;;;10.07;7.50;;;3.60;99.90;;;;;;5112392;28;20019;-62
2021/04/02 02:00:29;;;;;;;34.95;9.05;;;3.50;99.90;;;;;;5101324;28;20028;-63
2021/04/02 02:03:00;;;;;;;30.73;9.38;;;3.50;99.90;;;;;;5099793;28;20028;-62
2021/04/02 02:05:29;;;;;;;17.77;7.70;;;3.50;99.90;;;;;;5102501;28;20485;-62
2021/04/02 02:07:58;;;;;;;19.90;8.18;;;3.40;99.90;;;;;;5102989;28;20095;-62
2021/04/02 02:10:25;;;;;;;10.73;7.75;;;3.40;99.90;;;;;;5103463;28;20050;-61
2021/04/02 02:12:53;;;;;;;21.77;7.80;;;3.40;99.90;;;;;;5106603;28;20509;-63
2021/04/02 02:15:19;;;;;;;13.88;7.93;;;3.40;99.90;;;;;;5105324;28;20012;-63
2021/04/02 02:17:53;;;;;;;10.48;7.18;;;3.50;99.90;;;;;;5105804;28;20508;-63
2021/04/02 02:20:19;;;;;;;9.65;6.97;;;3.50;99.90;;;;;;5107585;28;20091;-63
2021/04/02 02:22:45;;;;;;;9.68;6.72;;;3.50;99.90;;;;;;5101903;28;20416;-63
2021/04/02 02:25:12;;;;;;;10.93;8.07;;;3.50;99.90;;;;;;5106692;28;20058;-62
2021/04/02 02:27:38;;;;;;;12.15;7.65;;;3.50;99.90;;;;;;5102295;28;20055;-63
2021/04/02 02:30:19;;;;;;;11.80;7.75;;;3.50;99.90;;;;;;5104091;28;20027;-63
2021/04/02 02:32:46;;;;;;;11.50;8.27;;;3.60;99.90;;;;;;5097100;28;20035;-61
2021/04/02 02:35:12;;;;;;;10.02;7.75;;;3.50;99.90;;;;;;5104976;28;20023;-63
2021/04/02 02:37:40;;;;;;;11.48;7.65;;;3.60;99.90;;;;;;5102788;28;20099;-61
2021/04/02 02:40:12;;;;;;;10.05;7.40;;;3.60;99.90;;;;;;5100470;28;20020;-63
2021/04/02 02:42:38;;;;;;;8.77;6.78;;;3.60;99.90;;;;;;5091074;28;20051;-61
2021/04/02 02:45:10;;;;;;;13.05;7.45;;;3.60;99.90;;;;;;5091126;28;20063;-63
2021/04/02 02:47:36;;;;;;;10.23;6.65;;;3.60;99.90;;;;;;5091138;28;20028;-63
2021/04/02 02:50:04;;;;;;;19.00;7.28;;;3.50;99.90;;;;;;5090756;28;20031;-62
2021/04/02 02:52:31;;;;;;;15.85;7.63;;;3.50;99.90;;;;;;5090122;28;20027;-62
2021/04/02 02:54:58;;;;;;;17.42;6.78;;;3.50;99.90;;;;;;5089720;28;20052;-62
2021/04/02 02:57:25;;;;;;;8.55;6.10;;;3.50;99.90;;;;;;5099568;28;20015;-62
2021/04/02 02:59:52;;;;;;;8.52;6.18;;;3.40;99.90;;;;;;5091877;28;20111;-63
2021/04/02 03:02:19;;;;;;;7.10;6.05;;;3.40;99.90;;;;;;5072789;28;20027;-63
2021/04/02 03:04:47;;;;;;;8.27;6.32;;;3.40;99.90;;;;;;5090996;28;20021;-64
2021/04/02 03:07:14;;;;;;;9.65;7.00;;;3.40;99.90;;;;;;5089647;28;20630;-63
2021/04/02 03:09:41;;;;;;;8.07;5.70;;;3.40;99.90;;;;;;5090606;28;20031;-63
2021/04/02 03:12:08;;;;;;;15.38;8.00;;;3.40;99.90;;;;;;5090577;28;20074;-62
2021/04/02 03:14:35;;;;;;;7.90;7.10;;;3.40;99.90;;;;;;5090740;28;20038;-62
2021/04/02 03:17:04;;;;;;;8.80;6.63;;;3.40;99.90;;;;;;5072025;28;20111;-62
2021/04/02 03:19:31;;;;;;;6.88;5.63;;;3.40;99.90;;;;;;5099348;28;20055;-62
2021/04/02 03:21:58;;;;;;;7.38;6.10;;;3.40;99.90;;;;;;5093482;28;20068;-61
2021/04/02 03:24:25;;;;;;;8.75;6.15;;;3.40;99.90;;;;;;5090711;28;20607;-62
2021/04/02 03:26:53;;;;;;;10.10;6.38;;;3.40;99.90;;;;;;5071941;28;20028;-61
2021/04/02 03:29:22;;;;;;;6.47;5.65;;;3.50;99.90;;;;;;5122512;22;20489;-53
2021/04/02 03:31:50;;;;;;;9.05;5.88;;;3.40;99.90;;;;;;5109283;28;20023;-52
2021/04/02 03:34:20;;;;;;;6.13;5.13;;;3.40;99.90;;;;;;5109335;28;20111;-56
2021/04/02 03:36:49;;;;;;;13.80;6.05;;;3.40;99.90;;;;;;5092216;28;20099;-56
2021/04/02 03:39:24;;;;;;;7.32;5.45;;;3.40;99.90;;;;;;5097800;28;20477;-53
2021/04/02 03:41:54;;;;;;;7.05;5.68;;;3.40;99.90;;;;;;5089922;28;20052;-54
2021/04/02 03:44:24;;;;;;;7.93;5.35;;;3.40;99.90;;;;;;5089420;28;20047;-55
2021/04/02 03:46:52;;;;;;;6.53;5.72;;;3.30;99.90;;;;;;5089218;28;20036;-57
2021/04/02 03:49:26;;;;;;;8.50;6.10;;;3.30;99.90;;;;;;5088564;28;20474;-55
2021/04/02 03:51:57;;;;;;;7.43;5.68;;;3.40;99.90;;;;;;5089293;28;20063;-56
2021/04/02 03:54:24;;;;;;;8.88;7.22;;;3.30;99.90;;;;;;5071380;28;20020;-57
2021/04/02 03:56:54;;;;;;;8.90;7.65;;;3.30;99.90;;;;;;5089450;28;20358;-57
2021/04/02 03:59:23;;;;;;;9.95;7.47;;;3.40;99.90;;;;;;5069904;28;20130;-56
2021/04/02 04:01:50;;;;;;;13.23;8.63;;;3.40;99.90;;;;;;5070943;28;20036;-57
2021/04/02 04:04:17;;;;;;;13.10;8.70;;;3.30;99.90;;;;;;5083385;28;20027;-57
2021/04/02 04:06:45;;;;;;;11.05;8.43;;;3.20;99.90;;;;;;5088111;28;20028;-58
2021/04/02 04:09:15;;;;;;;13.15;10.15;;;3.20;99.90;;;;;;5070242;28;20748;-53
2021/04/02 04:11:42;;;;;;;15.80;9.40;;;3.20;99.90;;;;;;5088967;28;20012;-55
2021/04/02 04:14:08;;;;;;;14.80;9.75;;;3.10;99.90;;;;;;5088574;28;20032;-57
2021/04/02 04:16:37;;;;;;;12.98;9.27;;;3.00;99.90;;;;;;5088709;28;20020;-56
2021/04/02 04:19:04;;;;;;;15.57;9.73;;;3.00;99.90;;;;;;5087846;28;20028;-57
2021/04/02 04:21:40;;;;;;;12.63;9.68;;;2.90;99.90;;;;;;5086983;28;20024;-56
2021/04/02 04:24:07;;;;;;;15.90;10.52;;;2.90;99.90;;;;;;5088867;28;20443;-56
2021/04/02 04:26:34;;;;;;;13.35;9.65;;;2.90;99.90;;;;;;5088896;28;20036;-54
2021/04/02 04:29:01;;;;;;;13.73;9.82;;;2.90;99.90;;;;;;5088351;28;20505;-57
2021/04/02 04:31:28;;;;;;;14.15;10.60;;;2.90;99.90;;;;;;5083238;28;20028;-56
2021/04/02 04:33:55;;;;;;;25.25;12.35;;;2.80;99.90;;;;;;5077642;28;20514;-54
2021/04/02 04:36:23;;;;;;;24.00;14.00;;;2.80;99.90;;;;;;5088592;28;20493;-54
2021/04/02 04:38:53;;;;;;;23.63;14.23;;;2.70;99.90;;;;;;5088605;28;20016;-54
2021/04/02 04:41:22;;;;;;;19.17;13.77;;;2.60;99.90;;;;;;5088710;28;20032;-53
2021/04/02 04:43:49;;;;;;;24.98;13.85;;;2.60;99.90;;;;;;5088410;28;20027;-56
2021/04/02 04:46:16;;;;;;;21.77;13.52;;;2.60;99.90;;;;;;5088031;28;20036;-54
2021/04/02 04:48:41;;;;;;;18.80;12.30;;;2.50;99.90;;;;;;5088088;28;20032;-55
2021/04/02 04:51:09;;;;;;;13.68;9.30;;;2.40;99.90;;;;;;5087622;28;20054;-54
2021/04/02 04:53:38;;;;;;;16.15;9.70;;;2.30;99.90;;;;;;5088201;28;20030;-51
2021/04/02 04:56:06;;;;;;;12.13;8.32;;;2.20;99.90;;;;;;5088136;28;20016;-54
2021/04/02 04:58:38;;;;;;;14.57;8.10;;;2.20;99.90;;;;;;5069849;28;20020;-57
2021/04/02 05:01:08;;;;;;;12.65;8.30;;;2.10;99.90;;;;;;5088103;28;20135;-56
2021/04/02 05:03:35;;;;;;;13.57;7.95;;;2.10;99.90;;;;;;5069993;28;20038;-55
2021/04/02 05:06:02;;;;;;;12.50;8.35;;;2.10;99.90;;;;;;5087235;28;20076;-54
2021/04/02 05:08:33;;;;;;;14.63;9.60;;;2.10;99.90;;;;;;5088065;28;20031;-52
2021/04/02 05:11:00;;;;;;;13.35;9.60;;;2.10;99.90;;;;;;5088058;28;20020;-55
2021/04/02 05:13:29;;;;;;;15.60;9.85;;;2.20;99.90;;;;;;5088041;28;20025;-51
2021/04/02 05:15:55;;;;;;;8.65;7.75;;;2.20;99.90;;;;;;5088313;28;20036;-56
2021/04/02 05:18:21;;;;;;;9.68;7.25;;;2.10;99.90;;;;;;5088119;28;20020;-56
2021/04/02 05:20:47;;;;;;;23.35;8.75;;;2.10;99.90;;;;;;5074150;28;20502;-52
2021/04/02 05:23:15;;;;;;;13.05;7.95;;;1.90;99.90;;;;;;5092054;28;20036;-55
2021/04/02 05:25:41;;;;;;;13.13;8.00;;;1.90;99.90;;;;;;5088260;28;20032;-56
2021/04/02 05:28:08;;;;;;;10.13;8.07;;;1.90;99.90;;;;;;5079029;28;20208;-56
2021/04/02 05:30:35;;;;;;;9.88;7.18;;;1.80;99.90;;;;;;5076042;28;20036;-55
2021/04/02 05:33:02;;;;;;;13.65;8.48;;;1.80;99.90;;;;;;5071643;28;20099;-54
2021/04/02 05:35:28;;;;;;;9.38;6.80;;;1.80;99.90;;;;;;5075436;28;20032;-51
2021/04/02 05:37:57;;;;;;;8.05;6.38;;;1.90;99.90;;;;;;5058555;28;20422;-54
2021/04/02 05:40:23;;;;;;;10.70;7.20;;;1.90;99.90;;;;;;5072459;28;20111;-56
2021/04/02 05:43:13;;;;;;;8.98;6.47;;;2.00;99.90;;;;;;5071760;28;20059;-56
2021/04/02 05:45:39;;;;;;;12.07;6.40;;;2.00;99.90;;;;;;5072937;28;20048;-54
2021/04/02 05:48:07;;;;;;;9.55;6.72;;;2.10;99.90;;;;;;5076554;28;20028;-53
2021/04/02 05:50:35;;;;;;;13.68;7.90;;;2.10;99.90;;;;;;5073021;28;20028;-55
2021/04/02 05:53:09;;;;;;;12.68;7.10;;;2.10;99.90;;;;;;5073706;28;20088;-54
2021/04/02 05:55:40;;;;;;;12.77;7.47;;;2.20;99.90;;;;;;5072006;28;20525;-53
2021/04/02 05:58:07;;;;;;;13.63;7.72;;;2.20;99.90;;;;;;5071032;28;20017;-55
2021/04/02 06:00:34;;;;;;;8.45;6.75;;;2.30;99.90;;;;;;5066309;28;20035;-54
2021/04/02 06:03:01;;;;;;;19.77;7.70;;;2.40;99.90;;;;;;5074572;28;20068;-54
2021/04/02 06:05:27;;;;;;;12.80;7.82;;;2.50;99.90;;;;;;5071957;28;20042;-55
2021/04/02 06:07:59;;;;;;;10.95;6.50;;;2.60;99.90;;;;;;5072786;28;20028;-53
2021/04/02 06:10:25;;;;;;;13.85;6.53;;;2.60;99.90;;;;;;5077818;28;20108;-56
2021/04/02 06:12:51;;;;;;;13.13;6.80;;;2.70;99.90;;;;;;5070830;28;20466;-54
2021/04/02 06:15:21;;;;;;;12.13;6.47;;;2.80;99.90;;;;;;5072836;28;20028;-55
2021/04/02 06:18:07;;;;;;;9.13;6.50;;;3.00;99.90;;;;;;5070440;28;20102;-54
2021/04/02 06:20:40;;;;;;;11.73;5.40;;;3.10;99.90;;;;;;5072647;28;20052;-52
2021/04/02 06:23:16;;;;;;;9.45;5.13;;;3.20;99.90;;;;;;5070220;28;20028;-55
2021/04/02 06:25:59;;;;;;;10.15;5.53;;;3.20;99.90;;;;;;5075078;28;20059;-53
2021/04/02 06:28:26;;;;;;;9.82;5.20;;;3.30;99.90;;;;;;5071895;28;20086;-55
2021/04/02 06:31:09;;;;;;;7.30;4.30;;;3.30;99.90;;;;;;5071570;28;20017;-55
2021/04/02 06:33:35;;;;;;;12.13;3.70;;;3.40;99.90;;;;;;5071269;28;20077;-55
2021/04/02 06:36:10;;;;;;;9.55;4.53;;;3.50;99.90;;;;;;5070707;28;20016;-53
2021/04/02 06:38:40;;;;;;;9.68;4.30;;;3.60;99.90;;;;;;5052225;28;20020;-57
2021/04/02 06:41:06;;;;;;;12.73;4.25;;;3.60;99.90;;;;;;5077155;28;20057;-54
2021/04/02 06:43:45;;;;;;;11.95;4.15;;;3.70;99.90;;;;;;5072241;28;20099;-56
2021/04/02 06:46:19;;;;;;;10.57;4.60;;;3.80;99.90;;;;;;5082648;28;20045;-53
2021/04/02 06:48:45;;;;;;;9.25;4.10;;;3.90;99.90;;;;;;5090603;28;20089;-53
2021/04/02 06:51:16;;;;;;;11.55;4.07;;;3.90;99.90;;;;;;5072008;28;20624;-53
2021/04/02 06:53:46;;;;;;;9.63;4.28;;;3.90;99.90;;;;;;5087819;28;20108;-56
2021/04/02 06:56:14;;;;;;;11.70;3.83;;;4.00;99.90;;;;;;5090282;28;20040;-54
2021/04/02 06:58:41;;;;;;;9.07;3.72;;;4.00;99.90;;;;;;5090418;28;20486;-55
2021/04/02 07:01:07;;;;;;;9.15;3.97;;;4.10;99.90;;;;;;5090399;28;20454;-56
2021/04/02 07:03:34;;;;;;;10.13;4.60;;;4.10;99.90;;;;;;5090702;28;20016;-54
2021/04/02 07:06:02;;;;;;;12.43;5.97;;;4.30;99.90;;;;;;5090825;28;20055;-55
2021/04/02 07:08:28;;;;;;;10.65;5.03;;;4.30;99.90;;;;;;5090476;28;20031;-56
2021/04/02 07:10:56;;;;;;;14.90;5.63;;;4.50;99.90;;;;;;5090064;28;20398;-55
2021/04/02 07:13:24;;;;;;;7.80;4.40;;;4.50;99.90;;;;;;5090107;28;20020;-56
2021/04/02 07:15:51;;;;;;;8.25;4.18;;;4.60;99.90;;;;;;5090521;28;20022;-53
2021/04/02 07:18:17;;;;;;;8.30;4.13;;;4.70;99.90;;;;;;5089910;28;20477;-56
2021/04/02 07:20:44;;;;;;;12.57;3.55;;;4.70;99.90;;;;;;5090018;28;20401;-56
2021/04/02 07:23:10;;;;;;;11.35;4.38;;;4.80;99.90;;;;;;5089658;28;20059;-57
2021/04/02 07:25:36;;;;;;;6.95;3.10;;;4.90;99.90;;;;;;5082781;28;20494;-54
2021/04/02 07:28:02;;;;;;;13.02;3.63;;;4.90;99.90;;;;;;5069543;28;20032;-53
2021/04/02 07:30:30;;;;;;;9.07;3.15;;;5.00;99.90;;;;;;5072670;28;20024;-55
2021/04/02 07:33:03;;;;;;;7.90;3.58;;;5.00;99.90;;;;;;5078099;28;20020;-55
2021/04/02 07:35:29;;;;;;;8.00;3.13;;;5.10;99.90;;;;;;5089925;28;20020;-53
2021/04/02 07:37:57;;;;;;;9.35;3.47;;;5.10;99.90;;;;;;5088223;28;20394;-56
2021/04/02 07:40:29;;;;;;;10.70;2.88;;;5.10;99.90;;;;;;5087763;28;20024;-55
2021/04/02 07:42:56;;;;;;;7.45;2.53;;;5.20;99.90;;;;;;5087899;28;20600;-57
2021/04/02 07:45:26;;;;;;;14.40;3.22;;;5.30;99.90;;;;;;5069954;28;20127;-55
2021/04/02 07:48:09;;;;;;;9.65;3.28;;;5.40;99.90;;;;;;5080431;28;20489;-56
2021/04/02 07:50:44;;;;;;;9.73;3.40;;;5.50;99.90;;;;;;5087373;28;20032;-55
2021/04/02 07:53:25;;;;;;;8.25;2.85;;;5.60;99.90;;;;;;5089175;28;20555;-56
2021/04/02 07:56:06;;;;;;;10.52;3.13;;;5.70;99.90;;;;;;5089306;28;20020;-54
2021/04/02 07:58:33;;;;;;;10.90;3.38;;;5.80;99.90;;;;;;5088040;28;20016;-54
2021/04/02 08:01:00;;;;;;;5.97;2.55;;;5.90;99.90;;;;;;5084931;28;20020;-55
2021/04/02 08:03:30;;;;;;;9.02;3.05;;;5.90;99.90;;;;;;5088113;28;20047;-57
2021/04/02 08:05:57;;;;;;;10.80;3.22;;;6.00;99.90;;;;;;5084094;28;20106;-55
2021/04/02 08:08:24;;;;;;;14.50;2.67;;;6.00;99.90;;;;;;5088348;28;20024;-53
2021/04/02 08:11:00;;;;;;;8.07;2.78;;;6.00;99.90;;;;;;5089316;28;20048;-55
2021/04/02 08:13:26;;;;;;;9.40;2.50;;;6.20;99.90;;;;;;5089604;28;20447;-56
2021/04/02 08:15:52;;;;;;;10.13;2.97;;;6.10;99.90;;;;;;5089963;28;20052;-55
2021/04/02 08:18:25;;;;;;;9.75;2.83;;;6.10;99.90;;;;;;5075425;28;20122;-56
2021/04/02 08:20:54;;;;;;;9.40;3.03;;;6.20;99.90;;;;;;5077083;28;20024;-54
2021/04/02 08:23:26;;;;;;;8.82;2.65;;;6.20;99.90;;;;;;5073263;28;20414;-53
2021/04/02 08:25:55;;;;;;;11.30;2.58;;;6.30;99.90;;;;;;5074526;28;20039;-55
2021/04/02 08:28:25;;;;;;;13.45;3.13;;;6.40;99.90;;;;;;5071200;28;20028;-55
2021/04/02 08:30:53;;;;;;;9.25;2.90;;;6.40;99.90;;;;;;5074788;28;20483;-56
2021/04/02 08:33:18;;;;;;;16.58;4.32;;;6.50;99.90;;;;;;5073155;28;20027;-56
2021/04/02 08:35:45;;;;;;;9.77;2.63;;;6.50;99.90;;;;;;5070329;28;20232;-56
2021/04/02 08:38:10;;;;;;;8.50;3.05;;;6.60;99.90;;;;;;5087676;28;20043;-56
2021/04/02 08:40:37;;;;;;;10.15;2.05;;;6.60;99.90;;;;;;5086066;28;20024;-53
2021/04/02 08:43:06;;;;;;;12.80;3.45;;;6.70;99.90;;;;;;5087221;28;20474;-58
2021/04/02 08:45:33;;;;;;;10.20;3.33;;;6.70;99.90;;;;;;5083472;28;20016;-55
2021/04/02 08:47:59;;;;;;;7.97;2.90;;;6.60;99.90;;;;;;5088499;28;20115;-57
2021/04/02 08:50:24;;;;;;;8.48;2.90;;;6.60;99.90;;;;;;5088510;28;20111;-55
2021/04/02 08:52:50;;;;;;;7.43;2.17;;;6.70;99.90;;;;;;5088046;28;20366;-55
2021/04/02 08:55:16;;;;;;;8.38;1.95;;;6.60;99.90;;;;;;5088351;28;20055;-56
2021/04/02 08:57:45;;;;;;;12.15;2.70;;;6.60;99.90;;;;;;5088544;28;20020;-57
2021/04/02 09:00:12;;;;;;;9.80;2.38;;;6.60;99.90;;;;;;5087834;28;20016;-54
2021/04/02 09:02:38;;;;;;;10.38;3.10;;;6.60;99.90;;;;;;5087760;28;20420;-55
2021/04/02 09:05:06;;;;;;;10.07;3.25;;;6.60;99.90;;;;;;5087887;28;20016;-54
2021/04/02 09:07:37;;;;;;;9.27;3.17;;;6.70;99.90;;;;;;5086350;28;20020;-56
2021/04/02 09:10:16;;;;;;;9.52;2.88;;;6.70;99.90;;;;;;5087526;28;20008;-55
2021/04/02 09:12:49;;;;;;;7.60;2.38;;;6.70;99.90;;;;;;5088044;28;20012;-53
2021/04/02 09:15:28;;;;;;;7.90;2.83;;;6.70;99.90;;;;;;5085730;28;20016;-54
2021/04/02 09:18:12;;;;;;;11.15;3.20;;;6.80;99.90;;;;;;5069699;28;20107;-55
2021/04/02 09:20:38;;;;;;;9.02;3.53;;;6.90;99.90;;;;;;5082432;28;20024;-56
2021/04/02 09:23:04;;;;;;;6.53;3.00;;;7.00;99.90;;;;;;5088131;28;20556;-54
2021/04/02 09:25:30;;;;;;;13.70;2.70;;;7.10;99.90;;;;;;5069941;28;20107;-56
2021/04/02 09:28:07;;;;;;;8.27;2.67;;;7.10;99.90;;;;;;5087956;28;20039;-57
2021/04/02 09:30:33;;;;;;;9.40;2.72;;;7.10;99.90;;;;;;5087505;28;20107;-55
2021/04/02 09:32:59;;;;;;;8.68;3.25;;;7.30;99.90;;;;;;5075384;28;20103;-56
2021/04/02 09:35:25;;;;;;;10.30;3.78;;;7.30;99.90;;;;;;5066467;28;20036;-52
2021/04/02 09:37:51;;;;;;;8.20;3.05;;;7.30;99.90;;;;;;5088120;28;20076;-56
2021/04/02 09:40:18;;;;;;;8.10;3.10;;;7.30;99.90;;;;;;5087644;28;20028;-55
2021/04/02 09:42:48;;;;;;;9.52;3.78;;;7.30;99.90;;;;;;5088090;28;20020;-54
2021/04/02 09:45:14;;;;;;;5.60;2.97;;;7.30;99.90;;;;;;5087915;28;20024;-56
2021/04/02 09:47:45;;;;;;;9.00;4.18;;;7.30;99.90;;;;;;5069903;28;20012;-57
2021/04/02 09:50:12;;;;;;;9.80;3.92;;;7.30;99.90;;;;;;5087365;28;20055;-54
2021/04/02 09:52:40;;;;;;;12.07;3.15;;;7.40;99.90;;;;;;5069485;28;20068;-55
2021/04/02 09:55:07;;;;;;;19.20;4.32;;;7.30;99.90;;;;;;5087391;28;20024;-56
2021/04/02 09:57:33;;;;;;;13.63;3.10;;;7.30;99.90;;;;;;5087651;28;20012;-55
2021/04/02 09:59:59;;;;;;;7.97;3.38;;;7.20;99.90;;;;;;5087394;28;20458;-55
2021/04/02 10:02:25;;;;;;;14.85;4.55;;;7.10;99.90;;;;;;5087376;28;20070;-56
2021/04/02 10:04:50;;;;;;;12.27;4.22;;;7.20;99.90;;;;;;5078963;28;20064;-59
2021/04/02 10:07:16;;;;;;;11.00;4.00;;;7.10;99.90;;;;;;5091474;28;20027;-56
2021/04/02 10:09:41;;;;;;;10.48;3.55;;;7.10;99.90;;;;;;5090730;28;20103;-57
2021/04/02 10:12:08;;;;;;;12.63;3.72;;;7.10;99.90;;;;;;5091086;28;20055;-57
2021/04/02 10:14:33;;;;;;;11.38;3.53;;;7.10;99.90;;;;;;5091354;28;20500;-56
2021/04/02 10:16:59;;;;;;;12.63;3.67;;;7.10;99.90;;;;;;5091140;28;20012;-54
2021/04/02 10:19:25;;;;;;;9.85;3.10;;;7.10;99.90;;;;;;5091072;28;20056;-56
2021/04/02 10:21:50;;;;;;;10.75;2.63;;;7.10;99.90;;;;;;5091146;28;20428;-58
2021/04/02 10:24:16;;;;;;;12.75;3.05;;;7.10;99.90;;;;;;5091093;28;20107;-57
2021/04/02 10:26:43;;;;;;;10.43;3.50;;;7.10;99.90;;;;;;5091207;28;20042;-56
2021/04/02 10:29:09;;;;;;;11.48;3.17;;;7.10;99.90;;;;;;5091271;28;20073;-57
2021/04/02 10:31:35;;;;;;;10.05;3.47;;;7.10;99.90;;;;;;5084819;28;20397;-57
2021/04/02 10:34:01;;;;;;;7.95;2.92;;;7.10;99.90;;;;;;5061394;28;20017;-56
2021/04/02 10:36:27;;;;;;;12.20;3.92;;;7.10;99.90;;;;;;5091701;28;20145;-54
2021/04/02 10:38:53;;;;;;;8.10;3.35;;;7.10;99.90;;;;;;5090595;28;20035;-56
2021/04/02 10:41:19;;;;;;;8.80;3.38;;;7.10;99.90;;;;;;5091073;28;20038;-55
2021/04/02 10:43:44;;;;;;;10.52;3.38;;;7.10;99.90;;;;;;5090695;28;20057;-56
2021/04/02 10:46:12;;;;;;;10.30;3.05;;;7.10;99.90;;;;;;5091121;28;20034;-57
2021/04/02 10:48:37;;;;;;;9.10;2.88;;;7.20;99.90;;;;;;5091025;28;20024;-57
2021/04/02 10:51:03;;;;;;;11.45;3.35;;;7.30;99.90;;;;;;5090140;28;20036;-58
2021/04/02 10:53:29;;;;;;;6.18;2.30;;;7.30;99.90;;;;;;5056250;28;20078;-55
2021/04/02 10:56:00;;;;;;;6.32;3.17;;;7.40;99.90;;;;;;5091147;28;20028;-56
2021/04/02 10:58:25;;;;;;;7.97;2.47;;;7.50;99.90;;;;;;5073103;28;20031;-55
2021/04/02 11:00:51;;;;;;;9.77;3.45;;;7.60;99.90;;;;;;5072462;28;20032;-56
2021/04/02 11:03:16;;;;;;;10.25;2.53;;;7.60;99.90;;;;;;5090733;28;20024;-55
2021/04/02 11:05:42;;;;;;;11.10;2.55;;;7.50;99.90;;;;;;5090844;28;20516;-54
2021/04/02 11:08:08;;;;;;;11.32;2.47;;;7.60;99.90;;;;;;5088738;28;20394;-56
2021/04/02 11:10:33;;;;;;;3.83;2.25;;;7.60;99.90;;;;;;5071718;28;20490;-54
2021/04/02 11:12:59;;;;;;;5.40;2.33;;;7.60;99.90;;;;;;5072321;28;20397;-55
2021/04/02 11:15:25;;;;;;;8.52;2.70;;;7.70;99.90;;;;;;5090067;28;20016;-55
2021/04/02 11:17:52;;;;;;;10.70;2.53;;;7.60;99.90;;;;;;5090499;28;20020;-53
2021/04/02 11:20:21;;;;;;;11.57;2.47;;;7.60;99.90;;;;;;5090688;28;20035;-54
2021/04/02 11:22:47;;;;;;;7.38;2.47;;;7.60;99.90;;;;;;5091371;28;20017;-53
2021/04/02 11:25:13;;;;;;;6.78;1.90;;;7.60;99.90;;;;;;5090558;28;20035;-56
2021/04/02 11:27:39;;;;;;;9.70;2.30;;;7.60;99.90;;;;;;5071786;28;20494;-52
2021/04/02 11:30:07;;;;;;;6.80;1.70;;;7.70;99.90;;;;;;5084129;28;20074;-56
2021/04/02 11:32:33;;;;;;;7.28;2.03;;;7.60;99.90;;;;;;5072305;28;20455;-53
2021/04/02 11:34:59;;;;;;;4.75;1.90;;;7.70;99.90;;;;;;5085322;28;20067;-53
2021/04/02 11:37:24;;;;;;;8.45;2.58;;;7.70;99.90;;;;;;5088828;28;20020;-52
2021/04/02 11:39:50;;;;;;;6.97;1.75;;;7.60;99.90;;;;;;5090297;28;20031;-52
2021/04/02 11:42:16;;;;;;;8.13;2.95;;;7.60;99.90;;;;;;5071888;28;20016;-55
2021/04/02 11:44:42;;;;;;;9.57;2.83;;;7.60;99.90;;;;;;5090038;28;20027;-52
2021/04/02 11:47:08;;;;;;;6.20;2.58;;;7.60;99.90;;;;;;5089926;28;20039;-55
2021/04/02 11:49:35;;;;;;;8.95;3.33;;;7.60;99.90;;;;;;5089771;28;20535;-53
2021/04/02 11:52:00;;;;;;;9.30;2.53;;;7.70;99.90;;;;;;5089939;28;20454;-56
2021/04/02 11:54:26;;;;;;;4.35;2.40;;;7.70;99.90;;;;;;5089356;28;20048;-54
2021/04/02 11:56:52;;;;;;;5.75;2.30;;;7.70;99.90;;;;;;5089787;28;20020;-53
2021/04/02 11:59:18;;;;;;;8.60;2.28;;;7.70;99.90;;;;;;5089455;28;20021;-54
2021/04/02 12:01:43;;;;;;;9.70;2.85;;;7.70;99.90;;;;;;5089175;28;20019;-54
2021/04/02 12:04:13;;;;;;;8.20;2.83;;;7.60;99.90;;;;;;5081627;28;20024;-56
2021/04/02 12:06:39;;;;;;;7.68;2.78;;;7.60;99.90;;;;;;5082648;28;20020;-56
2021/04/02 12:09:06;;;;;;;8.93;2.67;;;7.60;99.90;;;;;;5068185;28;20119;-57
2021/04/02 12:11:32;;;;;;;7.10;2.50;;;7.60;99.90;;;;;;5066317;28;20074;-53
2021/04/02 12:13:58;;;;;;;7.57;2.45;;;7.60;99.90;;;;;;5088947;28;20046;-55
2021/04/02 12:16:24;;;;;;;5.70;1.83;;;7.50;99.90;;;;;;5090814;28;20013;-53
2021/04/02 12:18:50;;;;;;;9.13;2.65;;;7.60;99.90;;;;;;5090971;28;20016;-53
2021/04/02 12:21:16;;;;;;;7.15;2.38;;;7.60;99.90;;;;;;5088041;28;20020;-57
2021/04/02 12:23:41;;;;;;;7.75;2.70;;;7.60;99.90;;;;;;5088009;28;20031;-55
2021/04/02 12:26:07;;;;;;;8.73;2.47;;;7.50;99.90;;;;;;5088659;28;20027;-56
2021/04/02 12:28:32;;;;;;;7.13;2.30;;;7.50;99.90;;;;;;5087034;28;20598;-55
2021/04/02 12:31:01;;;;;;;7.13;2.63;;;7.60;99.90;;;;;;5076942;28;20024;-56
2021/04/02 12:33:27;;;;;;;7.18;2.58;;;7.70;99.90;;;;;;5069014;28;20013;-57
2021/04/02 12:35:52;;;;;;;6.10;2.42;;;7.80;99.90;;;;;;5071573;28;20495;-55
2021/04/02 12:38:18;;;;;;;11.73;3.25;;;7.90;99.90;;;;;;5067930;28;20028;-52
2021/04/02 12:40:43;;;;;;;10.48;2.42;;;7.90;99.90;;;;;;5072797;28;20012;-56
2021/04/02 12:43:09;;;;;;;13.82;2.35;;;7.90;99.90;;;;;;5070235;28;20035;-57
2021/04/02 12:45:35;;;;;;;6.10;1.85;;;7.70;99.90;;;;;;5073753;28;20103;-52
2021/04/02 12:48:00;;;;;;;8.30;2.63;;;7.70;99.90;;;;;;5069220;28;20520;-57
2021/04/02 12:50:27;;;;;;;4.10;1.80;;;7.80;99.90;;;;;;5068676;28;20031;-57
2021/04/02 12:52:53;;;;;;;6.65;2.10;;;7.80;99.90;;;;;;5074063;28;20069;-54
2021/04/02 12:55:24;;;;;;;4.70;1.98;;;7.90;99.90;;;;;;5088606;28;20012;-55